createdAt,value
2023-03-26T00:01:49.814Z,2.40
2023-03-26T00:04:19.773Z,2.20
2023-03-26T00:06:49.039Z,2.53
2023-03-26T00:09:19.226Z,2.35
2023-03-26T00:11:47.329Z,2.10
2023-03-26T00:14:17.816Z,2.47
2023-03-26T00:16:47.493Z,2.45
2023-03-26T00:19:16.636Z,3.22
2023-03-26T00:21:44.525Z,2.70
2023-03-26T00:24:15.106Z,2.10
2023-03-26T00:26:48.457Z,2.92
2023-03-26T00:29:16.892Z,2.50
2023-03-26T00:31:46.107Z,2.47
2023-03-26T00:34:15.541Z,2.50
2023-03-26T00:36:43.944Z,2.38
2023-03-26T00:39:11.933Z,2.85
2023-03-26T00:41:42.995Z,2.45
2023-03-26T00:44:12.609Z,2.63
2023-03-26T00:46:40.689Z,2.67
2023-03-26T00:49:10.575Z,2.30
2023-03-26T00:51:39.211Z,2.15
2023-03-26T00:54:08.780Z,2.80
2023-03-26T00:56:37.046Z,2.53
2023-03-26T00:59:05.106Z,2.50
2023-03-26T01:01:34.378Z,2.63
2023-03-26T01:04:28.223Z,2.28
2023-03-26T01:06:59.927Z,3.15
2023-03-26T01:09:33.515Z,2.40
2023-03-26T01:12:03.271Z,2.60
2023-03-26T01:14:31.668Z,2.13
2023-03-26T01:17:03.035Z,2.58
2023-03-26T01:19:38.214Z,2.45
2023-03-26T01:22:07.046Z,2.40
2023-03-26T01:24:45.595Z,2.53
2023-03-26T01:27:24.328Z,2.35
2023-03-26T01:29:56.361Z,2.28
2023-03-26T01:32:49.181Z,2.47
2023-03-26T01:35:26.039Z,2.15
2023-03-26T01:38:10.929Z,2.47
2023-03-26T01:40:46.905Z,2.50
2023-03-26T01:43:25.465Z,2.83
2023-03-26T01:45:54.916Z,2.33
2023-03-26T01:48:31.198Z,1.88
2023-03-26T01:50:59.043Z,2.30
2023-03-26T01:53:27.605Z,2.55
2023-03-26T01:56:04.891Z,2.53
2023-03-26T01:58:39.048Z,2.80
2023-03-26T02:01:27.253Z,2.63
2023-03-26T02:04:03.009Z,2.22
2023-03-26T02:09:09.115Z,2.03
2023-03-26T02:11:41.558Z,2.50
2023-03-26T02:14:10.495Z,2.33
2023-03-26T02:16:38.472Z,2.50
2023-03-26T02:19:09.965Z,2.20
2023-03-26T02:21:37.902Z,2.20
2023-03-26T02:24:06.134Z,2.38
2023-03-26T02:26:38.847Z,2.50
2023-03-26T02:29:13.400Z,2.33
2023-03-26T02:31:43.931Z,2.40
2023-03-26T02:34:11.857Z,2.17
2023-03-26T02:36:43.790Z,2.55
2023-03-26T02:39:14.229Z,2.10
2023-03-26T02:41:49.634Z,2.03
2023-03-26T02:44:17.686Z,2.50
2023-03-26T02:47:00.845Z,3.10
2023-03-26T02:49:47.146Z,2.13
2023-03-26T02:52:22.964Z,2.22
2023-03-26T02:54:53.513Z,2.22
2023-03-26T02:57:25.336Z,2.45
2023-03-26T03:00:23.231Z,1.98
2023-03-26T03:03:27.531Z,1.85
2023-03-26T03:06:17.212Z,2.33
2023-03-26T03:08:50.297Z,2.58
2023-03-26T03:11:21.964Z,2.42
2023-03-26T03:13:53.017Z,2.35
2023-03-26T03:18:58.022Z,2.88
2023-03-26T03:21:30.862Z,2.00
2023-03-26T03:24:00.274Z,2.30
2023-03-26T03:26:30.660Z,2.10
2023-03-26T03:29:05.180Z,2.30
2023-03-26T03:31:33.365Z,2.58
2023-03-26T03:34:05.912Z,2.42
2023-03-26T03:36:38.561Z,2.50
2023-03-26T03:39:25.614Z,2.30
2023-03-26T03:41:53.645Z,2.30
2023-03-26T03:44:22.946Z,2.28
2023-03-26T03:46:54.074Z,2.28
2023-03-26T03:49:23.094Z,2.17
2023-03-26T03:51:51.167Z,2.22
2023-03-26T03:54:28.224Z,2.78
2023-03-26T03:57:08.679Z,2.42
2023-03-26T03:59:52.305Z,2.53
2023-03-26T04:02:26.143Z,2.47
2023-03-26T04:04:58.719Z,2.20
2023-03-26T04:07:30.586Z,2.53
2023-03-26T04:10:10.316Z,2.65
2023-03-26T04:13:01.556Z,2.72
2023-03-26T04:15:50.382Z,2.35
2023-03-26T04:18:20.344Z,2.40
2023-03-26T04:20:49.262Z,3.35
2023-03-26T04:23:23.343Z,2.53
2023-03-26T04:25:59.378Z,2.22
2023-03-26T04:28:46.338Z,2.40
2023-03-26T04:31:29.014Z,2.55
2023-03-26T04:34:01.466Z,2.70
2023-03-26T04:36:32.097Z,2.85
2023-03-26T04:39:04.855Z,2.47
2023-03-26T04:41:52.732Z,3.00
2023-03-26T04:44:22.608Z,2.80
2023-03-26T04:46:57.517Z,2.58
2023-03-26T04:49:34.496Z,2.78
2023-03-26T04:52:02.647Z,2.47
2023-03-26T04:54:48.985Z,2.42
2023-03-26T04:57:23.786Z,2.70
2023-03-26T05:00:16.609Z,2.33
2023-03-26T05:02:50.527Z,2.53
2023-03-26T05:05:19.621Z,2.13
2023-03-26T05:07:47.653Z,2.00
2023-03-26T05:10:20.403Z,2.47
2023-03-26T05:12:59.594Z,2.38
2023-03-26T05:15:30.967Z,2.40
2023-03-26T05:18:00.258Z,2.53
2023-03-26T05:20:41.478Z,2.42
2023-03-26T05:23:11.097Z,2.50
2023-03-26T05:25:46.995Z,2.47
2023-03-26T05:28:19.250Z,2.40
2023-03-26T05:31:01.006Z,2.70
2023-03-26T05:33:34.185Z,2.60
2023-03-26T05:36:20.562Z,2.33
2023-03-26T05:38:53.973Z,2.30
2023-03-26T05:41:40.357Z,2.83
2023-03-26T05:44:08.337Z,2.67
2023-03-26T05:46:36.401Z,2.53
2023-03-26T05:49:06.189Z,2.33
2023-03-26T05:51:36.817Z,2.88
2023-03-26T05:54:23.472Z,3.05
2023-03-26T05:57:09.365Z,2.30
2023-03-26T05:59:56.480Z,2.00
2023-03-26T06:02:43.174Z,3.03
2023-03-26T06:05:37.279Z,2.90
2023-03-26T06:08:12.927Z,2.83
2023-03-26T06:10:41.340Z,2.78
2023-03-26T06:13:09.242Z,2.90
2023-03-26T06:15:40.678Z,2.67
2023-03-26T06:18:17.793Z,2.13
2023-03-26T06:21:22.301Z,2.38
2023-03-26T06:23:54.342Z,2.72
2023-03-26T06:26:52.359Z,2.83
2023-03-26T06:29:38.727Z,2.40
2023-03-26T06:32:33.038Z,2.35
2023-03-26T06:35:07.555Z,2.20
2023-03-26T06:37:36.812Z,2.20
2023-03-26T06:40:05.079Z,2.47
2023-03-26T06:43:07.646Z,2.42
2023-03-26T06:46:01.621Z,2.13
2023-03-26T06:48:38.934Z,2.83
2023-03-26T06:51:16.348Z,2.50
2023-03-26T06:54:04.078Z,2.90
2023-03-26T06:57:07.307Z,2.47
2023-03-26T06:59:58.231Z,2.58
2023-03-26T07:02:44.837Z,3.65
2023-03-26T07:05:31.815Z,2.33
2023-03-26T07:08:12.237Z,2.20
2023-03-26T07:11:08.077Z,2.92
2023-03-26T07:13:36.670Z,3.08
2023-03-26T07:16:33.750Z,2.70
2023-03-26T07:19:31.288Z,2.85
2023-03-26T07:22:00.510Z,3.00
2023-03-26T07:24:49.801Z,2.83
2023-03-26T07:27:50.872Z,3.13
2023-03-26T07:30:33.849Z,2.40
2023-03-26T07:33:27.666Z,2.25
2023-03-26T07:36:24.028Z,3.10
2023-03-26T07:39:15.909Z,2.85
2023-03-26T07:42:11.069Z,2.92
2023-03-26T07:45:11.314Z,2.65
2023-03-26T07:47:53.532Z,3.35
2023-03-26T07:50:47.223Z,3.53
2023-03-26T07:53:29.564Z,4.20
2023-03-26T07:56:24.875Z,3.30
2023-03-26T07:59:29.075Z,3.33
2023-03-26T08:02:36.930Z,3.50
2023-03-26T08:05:29.759Z,4.40
2023-03-26T08:08:29.193Z,4.72
2023-03-26T08:11:31.099Z,3.42
2023-03-26T08:14:09.578Z,4.07
2023-03-26T08:16:47.836Z,3.40
2023-03-26T08:19:37.702Z,4.35
2023-03-26T08:22:14.348Z,3.50
2023-03-26T08:24:55.765Z,3.30
2023-03-26T08:27:29.498Z,3.35
2023-03-26T08:30:04.929Z,3.67
2023-03-26T08:32:33.367Z,5.32
2023-03-26T08:35:05.029Z,3.90
2023-03-26T08:37:32.985Z,3.20
2023-03-26T08:40:00.822Z,3.10
2023-03-26T08:43:04.666Z,3.80
2023-03-26T08:46:13.191Z,2.47
2023-03-26T08:49:01.492Z,2.42
2023-03-26T08:52:07.134Z,2.30
2023-03-26T08:54:52.419Z,2.47
2023-03-26T08:58:02.872Z,2.67
2023-03-26T09:00:54.999Z,2.97
2023-03-26T09:03:41.311Z,2.92
2023-03-26T09:06:33.543Z,1.77
2023-03-26T09:09:45.967Z,2.50
2023-03-26T09:12:41.867Z,2.78
2023-03-26T09:15:56.339Z,1.67
2023-03-26T09:18:59.920Z,2.20
2023-03-26T09:21:45.008Z,1.92
2023-03-26T09:24:44.682Z,1.80
2023-03-26T09:27:34.736Z,2.80
2023-03-26T09:30:39.380Z,3.38
2023-03-26T09:33:48.298Z,2.55
2023-03-26T09:36:33.381Z,2.28
2023-03-26T09:39:11.504Z,2.15
2023-03-26T09:41:44.716Z,1.80
2023-03-26T09:44:54.004Z,1.67
2023-03-26T09:48:07.512Z,1.95
2023-03-26T09:51:07.988Z,1.77
2023-03-26T09:53:53.559Z,1.73
2023-03-26T09:56:30.912Z,1.92
2023-03-26T09:59:24.634Z,1.58
2023-03-26T10:02:01.756Z,1.67
2023-03-26T10:05:00.324Z,1.73
2023-03-26T10:07:55.916Z,1.95
2023-03-26T10:10:32.758Z,1.45
2023-03-26T10:13:14.852Z,1.50
2023-03-26T10:16:01.110Z,2.00
2023-03-26T10:18:40.860Z,1.55
2023-03-26T10:21:15.758Z,1.60
2023-03-26T10:23:56.983Z,1.70
2023-03-26T10:26:37.421Z,1.58
2023-03-26T10:29:17.032Z,2.15
2023-03-26T10:31:48.582Z,1.73
2023-03-26T10:34:32.346Z,2.63
2023-03-26T10:37:09.677Z,10.55
2023-03-26T10:40:01.940Z,6.82
2023-03-26T10:43:04.062Z,5.85
2023-03-26T10:45:54.524Z,6.05
2023-03-26T10:48:36.009Z,8.70
2023-03-26T10:51:25.925Z,6.95
2023-03-26T10:53:58.125Z,4.38
2023-03-26T10:56:33.189Z,4.30
2023-03-26T10:59:06.670Z,9.15
2023-03-26T11:01:44.108Z,4.10
2023-03-26T11:04:25.615Z,8.02
2023-03-26T11:07:04.952Z,6.32
2023-03-26T11:09:42.411Z,4.97
2023-03-26T11:12:26.758Z,10.40
2023-03-26T11:15:08.804Z,6.95
2023-03-26T11:17:49.886Z,3.65
2023-03-26T11:20:23.688Z,11.52
2023-03-26T11:23:09.632Z,10.43
2023-03-26T11:26:01.781Z,7.40
2023-03-26T11:29:03.267Z,8.18
2023-03-26T11:31:46.406Z,8.77
2023-03-26T11:34:17.476Z,2.72
2023-03-26T11:36:51.820Z,2.90
2023-03-26T11:39:25.434Z,2.72
2023-03-26T11:42:00.372Z,2.90
2023-03-26T11:44:43.112Z,2.45
2023-03-26T11:47:15.114Z,6.20
2023-03-26T11:49:45.501Z,6.68
2023-03-26T11:52:15.776Z,6.20
2023-03-26T11:54:48.297Z,6.72
2023-03-26T11:57:21.970Z,5.00
2023-03-26T11:59:57.896Z,2.22
2023-03-26T12:02:32.351Z,1.90
2023-03-26T12:05:31.545Z,1.77
2023-03-26T12:08:03.361Z,1.73
2023-03-26T12:10:37.659Z,0.50
2023-03-26T12:13:29.340Z,0.45
2023-03-26T12:15:59.961Z,0.57
2023-03-26T12:18:29.437Z,0.30
2023-03-26T12:21:09.298Z,0.17
2023-03-26T12:23:52.443Z,1.77
2023-03-26T12:26:21.959Z,0.20
2023-03-26T12:28:52.662Z,0.43
2023-03-26T12:31:20.628Z,0.30
2023-03-26T12:34:05.065Z,0.25
2023-03-26T12:36:35.811Z,0.17
2023-03-26T12:40:11.853Z,0.40
2023-03-26T12:44:49.799Z,0.32
2023-03-26T12:45:15.860Z,0.20
2023-03-26T12:48:00.800Z,0.20
2023-03-26T12:50:51.095Z,0.20
2023-03-26T12:53:39.567Z,0.20
2023-03-26T12:56:21.805Z,0.30
2023-03-26T12:59:03.885Z,0.30
2023-03-26T13:01:42.754Z,0.20
2023-03-26T13:04:30.125Z,0.17
2023-03-26T13:07:02.568Z,0.30
2023-03-26T13:09:50.417Z,0.47
2023-03-26T13:12:33.999Z,0.30
2023-03-26T13:15:17.800Z,0.47
2023-03-26T13:17:57.588Z,0.32
2023-03-26T13:20:33.152Z,0.32
2023-03-26T13:23:10.800Z,0.50
2023-03-26T13:25:46.645Z,0.43
2023-03-26T13:28:28.129Z,0.50
2023-03-26T13:31:06.384Z,0.40
2023-03-26T13:33:41.176Z,0.60
2023-03-26T13:36:23.733Z,0.77
2023-03-26T13:39:03.550Z,0.90
2023-03-26T13:41:44.412Z,3.17
2023-03-26T13:44:23.655Z,1.02
2023-03-26T13:46:54.213Z,1.20
2023-03-26T13:49:37.180Z,1.50
2023-03-26T13:52:09.385Z,1.30
2023-03-26T13:54:44.806Z,1.40
2023-03-26T13:57:19.965Z,1.73
2023-03-26T13:59:55.642Z,1.65
2023-03-26T14:04:58.770Z,1.73
2023-03-26T14:07:32.201Z,1.90
2023-03-26T14:10:06.122Z,1.98
2023-03-26T14:12:48.951Z,1.92
2023-03-26T14:15:25.790Z,2.15
2023-03-26T14:17:59.944Z,2.13
2023-03-26T14:20:44.473Z,2.50
2023-03-26T14:23:35.063Z,2.50
2023-03-26T14:26:15.035Z,2.15
2023-03-26T14:29:09.876Z,1.92
2023-03-26T14:31:43.279Z,1.77
2023-03-26T14:34:33.240Z,1.90
2023-03-26T14:37:27.023Z,1.58
2023-03-26T14:40:28.921Z,2.00
2023-03-26T14:43:12.808Z,2.00
2023-03-26T14:45:53.598Z,5.25
2023-03-26T14:48:54.601Z,2.42
2023-03-26T14:51:42.288Z,2.00
2023-03-26T14:54:14.210Z,2.40
2023-03-26T14:57:20.003Z,2.33
2023-03-26T15:00:16.557Z,2.38
2023-03-26T15:03:26.747Z,2.70
2023-03-26T15:06:23.339Z,2.47
2023-03-26T15:09:42.739Z,2.53
2023-03-26T15:12:22.042Z,2.65
2023-03-26T15:15:24.945Z,3.17
2023-03-26T15:18:25.405Z,2.90
2023-03-26T15:21:28.911Z,2.95
2023-03-26T15:24:26.057Z,2.70
2023-03-26T15:27:33.639Z,2.35
2023-03-26T15:30:28.272Z,2.17
2023-03-26T15:33:25.030Z,2.58
2023-03-26T15:36:21.353Z,2.60
2023-03-26T15:39:31.950Z,2.45
2023-03-26T15:42:10.077Z,2.30
2023-03-26T15:44:58.659Z,2.40
2023-03-26T15:47:52.275Z,2.47
2023-03-26T15:50:31.869Z,1.75
2023-03-26T15:53:14.541Z,1.42
2023-03-26T15:55:53.576Z,1.40
2023-03-26T15:58:28.685Z,1.20
2023-03-26T16:01:18.995Z,2.90
2023-03-26T16:03:58.308Z,0.80
2023-03-26T16:06:35.477Z,1.10
2023-03-26T16:09:25.275Z,1.02
2023-03-26T16:11:57.270Z,1.23
2023-03-26T16:14:43.341Z,1.30
2023-03-26T16:17:15.081Z,1.23
2023-03-26T16:19:53.008Z,0.80
2023-03-26T16:22:43.425Z,0.90
2023-03-26T16:25:28.972Z,1.50
2023-03-26T16:28:35.431Z,1.10
2023-03-26T16:31:37.923Z,1.10
2023-03-26T16:34:43.574Z,1.00
2023-03-26T16:37:43.808Z,1.00
2023-03-26T16:40:34.897Z,1.05
2023-03-26T16:43:27.943Z,1.20
2023-03-26T16:46:03.444Z,1.60
2023-03-26T16:51:14.903Z,1.10
2023-03-26T16:53:51.259Z,1.27
2023-03-26T16:56:34.766Z,1.38
2023-03-26T16:59:08.060Z,1.15
2023-03-26T17:01:42.972Z,1.08
2023-03-26T17:04:17.252Z,1.20
2023-03-26T17:07:05.602Z,1.00
2023-03-26T17:09:42.671Z,1.08
2023-03-26T17:12:19.831Z,1.10
2023-03-26T17:15:04.787Z,1.10
2023-03-26T17:17:50.441Z,1.00
2023-03-26T17:20:32.926Z,1.17
2023-03-26T17:23:11.528Z,1.10
2023-03-26T17:25:52.971Z,1.60
2023-03-26T17:28:40.500Z,1.40
2023-03-26T17:31:20.324Z,1.20
2023-03-26T17:33:48.896Z,1.60
2023-03-26T17:36:43.284Z,1.50
2023-03-26T17:40:09.303Z,1.30
2023-03-26T17:42:37.535Z,1.38
2023-03-26T17:45:09.508Z,1.50
2023-03-26T17:47:41.137Z,2.17
2023-03-26T17:50:15.664Z,2.15
2023-03-26T17:52:54.854Z,1.60
2023-03-26T17:55:30.472Z,1.00
2023-03-26T18:00:30.665Z,1.17
2023-03-26T18:03:01.667Z,1.48
2023-03-26T18:05:31.859Z,1.50
2023-03-26T18:08:16.925Z,1.92
2023-03-26T18:11:12.258Z,4.18
2023-03-26T18:14:07.155Z,2.50
2023-03-26T18:16:40.078Z,2.45
2023-03-26T18:19:18.231Z,2.60
2023-03-26T18:21:50.042Z,2.70
2023-03-26T18:24:24.426Z,2.60
2023-03-26T18:26:58.333Z,2.55
2023-03-26T18:29:28.442Z,2.80
2023-03-26T18:32:00.438Z,2.50
2023-03-26T18:34:32.126Z,2.63
2023-03-26T18:37:10.913Z,2.35
2023-03-26T18:39:40.142Z,2.80
2023-03-26T18:42:22.544Z,2.38
2023-03-26T18:44:52.961Z,2.80
2023-03-26T18:47:21.660Z,3.30
2023-03-26T18:49:53.297Z,2.90
2023-03-26T18:52:22.446Z,3.53
2023-03-26T18:54:55.109Z,2.90
2023-03-26T18:57:25.814Z,3.70
2023-03-26T18:59:55.920Z,3.33
2023-03-26T19:02:26.239Z,4.05
2023-03-26T19:04:55.394Z,3.50
2023-03-26T19:07:26.876Z,4.20
2023-03-26T19:09:56.692Z,3.65
2023-03-26T19:12:30.886Z,3.60
2023-03-26T19:15:05.260Z,3.83
2023-03-26T19:17:39.653Z,4.80
2023-03-26T19:20:14.826Z,4.22
2023-03-26T19:22:44.616Z,4.43
2023-03-26T19:25:22.477Z,4.95
2023-03-26T19:27:51.901Z,5.07
2023-03-26T19:30:28.486Z,4.30
2023-03-26T19:33:12.219Z,4.18
2023-03-26T19:35:42.632Z,4.25
2023-03-26T19:38:27.890Z,4.47
2023-03-26T19:43:28.103Z,3.65
2023-03-26T19:46:01.230Z,4.32
2023-03-26T19:48:45.760Z,3.95
2023-03-26T19:51:21.092Z,3.78
2023-03-26T19:53:53.005Z,3.70
2023-03-26T19:56:23.623Z,3.47
2023-03-26T19:58:52.420Z,3.50
2023-03-26T20:01:22.794Z,3.53
2023-03-26T20:03:53.396Z,3.40
2023-03-26T20:06:30.861Z,2.70
2023-03-26T20:09:06.319Z,2.67
2023-03-26T20:11:38.721Z,2.70
2023-03-26T20:14:13.841Z,2.65
2023-03-26T20:16:44.319Z,2.60
2023-03-26T20:19:14.318Z,2.80
2023-03-26T20:21:43.383Z,3.05
2023-03-26T20:24:14.729Z,3.20
2023-03-26T20:26:44.587Z,2.88
2023-03-26T20:29:13.016Z,3.08
2023-03-26T20:31:42.052Z,2.65
2023-03-26T20:34:16.836Z,2.75
2023-03-26T20:36:45.588Z,2.63
2023-03-26T20:39:13.936Z,2.90
2023-03-26T20:41:46.545Z,2.85
2023-03-26T20:44:16.703Z,2.90
2023-03-26T20:46:46.685Z,2.15
2023-03-26T20:49:15.023Z,2.75
2023-03-26T20:51:44.534Z,2.70
2023-03-26T20:54:17.522Z,2.95
2023-03-26T20:56:47.992Z,2.30
2023-03-26T20:59:21.628Z,2.30
2023-03-26T21:01:50.948Z,2.60
2023-03-26T21:04:20.333Z,1.80
2023-03-26T21:06:48.712Z,2.80
2023-03-26T21:09:18.995Z,2.58
2023-03-26T21:11:54.989Z,2.60
2023-03-26T21:14:25.781Z,2.38
2023-03-26T21:16:54.639Z,1.98
2023-03-26T21:19:23.150Z,3.22
2023-03-26T21:22:00.827Z,2.75
2023-03-26T21:24:45.003Z,2.50
2023-03-26T21:27:22.310Z,2.40
2023-03-26T21:29:52.502Z,1.98
2023-03-26T21:32:21.308Z,2.83
2023-03-26T21:34:58.617Z,2.83
2023-03-26T21:37:28.117Z,2.75
2023-03-26T21:39:56.591Z,2.33
2023-03-26T21:42:29.236Z,2.20
2023-03-26T21:44:57.700Z,2.13
2023-03-26T21:47:26.266Z,2.50
2023-03-26T21:49:54.764Z,2.45
2023-03-26T21:52:23.921Z,2.28
2023-03-26T21:54:52.640Z,2.20
2023-03-26T21:57:45.346Z,2.08
2023-03-26T22:00:18.389Z,2.08
2023-03-26T22:03:01.169Z,1.90
2023-03-26T22:05:37.886Z,2.00
2023-03-26T22:08:08.044Z,2.60
2023-03-26T22:10:37.718Z,1.23
2023-03-26T22:13:06.913Z,1.67
2023-03-26T22:15:35.154Z,1.33
2023-03-26T22:18:03.981Z,2.03
2023-03-26T22:20:32.531Z,2.03
2023-03-26T22:23:01.835Z,2.05
2023-03-26T22:25:30.200Z,2.00
2023-03-26T22:27:58.225Z,1.17
2023-03-26T22:30:27.770Z,1.67
2023-03-26T22:32:55.688Z,2.22
2023-03-26T22:35:23.695Z,1.85
2023-03-26T22:37:51.624Z,1.30
2023-03-26T22:40:20.497Z,1.17
2023-03-26T22:42:48.536Z,1.45
2023-03-26T22:45:17.120Z,1.42
2023-03-26T22:47:46.421Z,1.38
2023-03-26T22:50:14.350Z,1.40
2023-03-26T22:52:42.176Z,1.55
2023-03-26T22:55:10.927Z,1.48
2023-03-26T22:57:38.834Z,1.40
2023-03-26T23:00:16.129Z,1.42
2023-03-26T23:02:45.812Z,1.50
2023-03-26T23:05:17.352Z,1.70
2023-03-26T23:07:45.909Z,1.20
2023-03-26T23:10:14.836Z,1.50
2023-03-26T23:12:42.690Z,1.95
2023-03-26T23:15:11.585Z,1.60
2023-03-26T23:17:39.628Z,1.48
2023-03-26T23:20:14.422Z,1.50
2023-03-26T23:22:44.541Z,1.60
2023-03-26T23:25:13.046Z,2.35
2023-03-26T23:27:41.183Z,1.55
2023-03-26T23:30:10.966Z,1.70
2023-03-26T23:32:38.889Z,1.50
2023-03-26T23:35:07.618Z,1.80
2023-03-26T23:37:35.836Z,2.10
2023-03-26T23:40:09.885Z,2.03
2023-03-26T23:42:38.298Z,1.83
2023-03-26T23:45:08.219Z,1.80
2023-03-26T23:47:36.379Z,1.83
2023-03-26T23:50:05.777Z,1.77
2023-03-26T23:52:33.596Z,2.00
2023-03-26T23:55:01.419Z,1.75
2023-03-26T23:57:31.851Z,1.60
2023-03-26T23:59:59.679Z,1.63
